sensor_id;sensor_type;location;lat;lon;timestamp;pressure;altitude;pressure_sealevel;temperature;humidity
18784;BME280;9520;50.954;6.968;2022-11-20T00:00:15;100627.25;;;12.30;41.17
18784;BME280;9520;50.954;6.968;2022-11-20T00:00:38;100618.63;;;12.23;41.58
18784;BME280;9520;50.954;6.968;2022-11-20T00:01:04;100629.13;;;12.25;41.37
18784;BME280;9520;50.954;6.968;2022-11-20T00:01:26;100628.16;;;12.29;41.72
18784;BME280;9520;50.954;6.968;2022-11-20T00:01:48;100620.19;;;12.30;41.54
18784;BME280;9520;50.954;6.968;2022-11-20T00:02:10;100622.84;;;12.30;41.38
18784;BME280;9520;50.954;6.968;2022-11-20T00:02:32;100616.69;;;12.30;41.22
18784;BME280;9520;50.954;6.968;2022-11-20T00:02:54;100618.44;;;12.31;41.38
18784;BME280;9520;50.954;6.968;2022-11-20T00:03:15;100621.09;;;12.29;41.63
18784;BME280;9520;50.954;6.968;2022-11-20T00:03:38;100621.84;;;12.34;41.70
18784;BME280;9520;50.954;6.968;2022-11-20T00:04:01;100620.16;;;12.33;41.40
18784;BME280;9520;50.954;6.968;2022-11-20T00:04:23;100621.84;;;12.36;41.49
18784;BME280;9520;50.954;6.968;2022-11-20T00:04:44;100613.06;;;12.34;41.53
18784;BME280;9520;50.954;6.968;2022-11-20T00:05:07;100624.50;;;12.34;41.28
18784;BME280;9520;50.954;6.968;2022-11-20T00:05:32;100604.47;;;12.24;40.81
18784;BME280;9520;50.954;6.968;2022-11-20T00:05:53;100626.50;;;12.25;40.60
18784;BME280;9520;50.954;6.968;2022-11-20T00:06:17;100622.31;;;12.15;41.18
18784;BME280;9520;50.954;6.968;2022-11-20T00:06:38;100625.72;;;12.20;41.06
18784;BME280;9520;50.954;6.968;2022-11-20T00:07:01;100632.91;;;12.15;40.95
18784;BME280;9520;50.954;6.968;2022-11-20T00:07:24;100624.16;;;12.13;40.91
18784;BME280;9520;50.954;6.968;2022-11-20T00:07:46;100625.81;;;12.17;41.02
18784;BME280;9520;50.954;6.968;2022-11-20T00:08:08;100617.03;;;12.15;41.25
18784;BME280;9520;50.954;6.968;2022-11-20T00:08:30;100628.38;;;12.20;41.14
18784;BME280;9520;50.954;6.968;2022-11-20T00:08:54;100617.97;;;12.14;41.34
18784;BME280;9520;50.954;6.968;2022-11-20T00:09:16;100630.13;;;12.21;41.61
18784;BME280;9520;50.954;6.968;2022-11-20T00:09:39;100631.00;;;12.21;41.76
18784;BME280;9520;50.954;6.968;2022-11-20T00:10:01;100625.69;;;12.21;41.43
18784;BME280;9520;50.954;6.968;2022-11-20T00:10:23;100631.88;;;12.22;41.70
18784;BME280;9520;50.954;6.968;2022-11-20T00:10:44;100626.56;;;12.22;41.64
18784;BME280;9520;50.954;6.968;2022-11-20T00:11:07;100630.09;;;12.22;41.60
18784;BME280;9520;50.954;6.968;2022-11-20T00:11:36;100630.13;;;12.21;41.58
18784;BME280;9520;50.954;6.968;2022-11-20T00:11:57;100623.94;;;12.22;41.60
18784;BME280;9520;50.954;6.968;2022-11-20T00:12:19;100619.47;;;12.24;41.81
18784;BME280;9520;50.954;6.968;2022-11-20T00:12:42;100618.56;;;12.25;42.00
18784;BME280;9520;50.954;6.968;2022-11-20T00:13:03;100622.09;;;12.24;41.81
18784;BME280;9520;50.954;6.968;2022-11-20T00:13:25;100619.47;;;12.24;41.62
18784;BME280;9520;50.954;6.968;2022-11-20T00:13:49;100623.94;;;12.22;41.77
18784;BME280;9520;50.954;6.968;2022-11-20T00:14:11;100627.38;;;12.24;42.04
18784;BME280;9520;50.954;6.968;2022-11-20T00:14:33;100624.84;;;12.21;41.75
18784;BME280;9520;50.954;6.968;2022-11-20T00:14:55;100622.19;;;12.21;41.35
18784;BME280;9520;50.954;6.968;2022-11-20T00:15:16;100623.06;;;12.21;41.06
18784;BME280;9520;50.954;6.968;2022-11-20T00:15:39;100623.97;;;12.20;41.02
18784;BME280;9520;50.954;6.968;2022-11-20T00:16:03;100622.22;;;12.19;40.96
18784;BME280;9520;50.954;6.968;2022-11-20T00:16:26;100609.19;;;12.10;41.15
18784;BME280;9520;50.954;6.968;2022-11-20T00:16:48;100627.59;;;12.16;41.27
18784;BME280;9520;50.954;6.968;2022-11-20T00:17:11;100620.53;;;12.17;41.72
18784;BME280;9520;50.954;6.968;2022-11-20T00:17:32;100624.91;;;12.18;41.93
18784;BME280;9520;50.954;6.968;2022-11-20T00:17:54;100624.91;;;12.18;41.35
18784;BME280;9520;50.954;6.968;2022-11-20T00:18:16;100628.47;;;12.15;41.12
18784;BME280;9520;50.954;6.968;2022-11-20T00:18:37;100627.56;;;12.18;41.12
18784;BME280;9520;50.954;6.968;2022-11-20T00:19:00;100626.72;;;12.16;41.21
18784;BME280;9520;50.954;6.968;2022-11-20T00:19:22;100628.44;;;12.17;41.49
18784;BME280;9520;50.954;6.968;2022-11-20T00:19:44;100627.59;;;12.16;41.44
18784;BME280;9520;50.954;6.968;2022-11-20T00:20:06;100621.44;;;12.14;41.43
18784;BME280;9520;50.954;6.968;2022-11-20T00:20:29;100622.41;;;12.11;41.69
18784;BME280;9520;50.954;6.968;2022-11-20T00:20:51;100624.09;;;12.14;41.74
18784;BME280;9520;50.954;6.968;2022-11-20T00:21:14;100626.72;;;12.16;41.96
18784;BME280;9520;50.954;6.968;2022-11-20T00:21:36;100627.56;;;12.18;41.12
18784;BME280;9520;50.954;6.968;2022-11-20T00:21:59;100626.91;;;12.08;41.04
18784;BME280;9520;50.954;6.968;2022-11-20T00:22:20;100631.19;;;12.12;40.87
18784;BME280;9520;50.954;6.968;2022-11-20T00:22:43;100624.28;;;12.06;41.04
18784;BME280;9520;50.954;6.968;2022-11-20T00:23:06;100623.38;;;12.07;41.00
18784;BME280;9520;50.954;6.968;2022-11-20T00:23:28;100622.41;;;12.10;41.00
18784;BME280;9520;50.954;6.968;2022-11-20T00:23:51;100623.31;;;12.09;40.88
18784;BME280;9520;50.954;6.968;2022-11-20T00:24:15;100626.84;;;12.09;41.13
18784;BME280;9520;50.954;6.968;2022-11-20T00:24:38;100621.56;;;12.09;41.33
18784;BME280;9520;50.954;6.968;2022-11-20T00:25:04;100618.00;;;12.10;41.27
18784;BME280;9520;50.954;6.968;2022-11-20T00:25:26;100621.59;;;12.08;41.15
18784;BME280;9520;50.954;6.968;2022-11-20T00:25:47;100628.59;;;12.09;41.12
18784;BME280;9520;50.954;6.968;2022-11-20T00:26:10;100623.41;;;12.04;40.93
18784;BME280;9520;50.954;6.968;2022-11-20T00:26:33;100625.28;;;11.99;41.00
18784;BME280;9520;50.954;6.968;2022-11-20T00:26:55;100620.09;;;11.96;41.12
18784;BME280;9520;50.954;6.968;2022-11-20T00:27:16;100627.94;;;11.99;41.24
18784;BME280;9520;50.954;6.968;2022-11-20T00:27:39;100628.78;;;12.01;41.45
18784;BME280;9520;50.954;6.968;2022-11-20T00:28:01;100619.13;;;12.00;41.65
18784;BME280;9520;50.954;6.968;2022-11-20T00:28:22;100625.25;;;12.02;41.48
18784;BME280;9520;50.954;6.968;2022-11-20T00:28:49;100597.47;;;11.83;41.95
18784;BME280;9520;50.954;6.968;2022-11-20T00:29:11;100627.94;;;11.99;42.02
18784;BME280;9520;50.954;6.968;2022-11-20T00:29:33;100627.03;;;12.02;41.73
18784;BME280;9520;50.954;6.968;2022-11-20T00:29:55;100626.06;;;12.04;41.77
18784;BME280;9520;50.954;6.968;2022-11-20T00:30:17;100620.78;;;12.04;41.62
18784;BME280;9520;50.954;6.968;2022-11-20T00:30:40;100625.28;;;11.99;41.55
18784;BME280;9520;50.954;6.968;2022-11-20T00:31:02;100618.28;;;11.98;41.51
18784;BME280;9520;50.954;6.968;2022-11-20T00:31:24;100622.63;;;12.01;41.48
18784;BME280;9520;50.954;6.968;2022-11-20T00:31:46;100624.28;;;12.05;41.70
18784;BME280;9520;50.954;6.968;2022-11-20T00:32:09;100625.16;;;12.05;41.62
18784;BME280;9520;50.954;6.968;2022-11-20T00:32:30;100627.84;;;12.04;41.82
18784;BME280;9520;50.954;6.968;2022-11-20T00:32:52;100626.94;;;12.05;41.96
18784;BME280;9520;50.954;6.968;2022-11-20T00:33:13;100611.22;;;11.99;41.61
18784;BME280;9520;50.954;6.968;2022-11-20T00:33:36;100617.44;;;11.98;41.17
18784;BME280;9520;50.954;6.968;2022-11-20T00:33:58;100621.75;;;12.00;41.00
18784;BME280;9520;50.954;6.968;2022-11-20T00:34:20;100616.56;;;11.97;41.27
18784;BME280;9520;50.954;6.968;2022-11-20T00:34:41;100626.03;;;12.06;41.03
18784;BME280;9520;50.954;6.968;2022-11-20T00:35:04;100622.53;;;12.05;40.97
18784;BME280;9520;50.954;6.968;2022-11-20T00:35:26;100616.41;;;12.03;41.51
18784;BME280;9520;50.954;6.968;2022-11-20T00:35:48;100627.84;;;12.04;41.84
18784;BME280;9520;50.954;6.968;2022-11-20T00:36:11;100620.72;;;12.07;41.97
18784;BME280;9520;50.954;6.968;2022-11-20T00:36:34;100626.84;;;12.09;42.06
18784;BME280;9520;50.954;6.968;2022-11-20T00:36:55;100613.69;;;12.08;41.91
18784;BME280;9520;50.954;6.968;2022-11-20T00:37:18;100622.50;;;12.07;41.92
18784;BME280;9520;50.954;6.968;2022-11-20T00:37:39;100612.03;;;12.02;41.39
18784;BME280;9520;50.954;6.968;2022-11-20T00:38:02;100627.75;;;12.08;41.00
18784;BME280;9520;50.954;6.968;2022-11-20T00:38:24;100627.72;;;12.10;41.68
18784;BME280;9520;50.954;6.968;2022-11-20T00:38:46;100622.41;;;12.11;41.76
18784;BME280;9520;50.954;6.968;2022-11-20T00:39:09;100624.09;;;12.14;41.92
18784;BME280;9520;50.954;6.968;2022-11-20T00:39:30;100624.16;;;12.13;41.84
18784;BME280;9520;50.954;6.968;2022-11-20T00:39:52;100626.72;;;12.14;42.20
18784;BME280;9520;50.954;6.968;2022-11-20T00:40:13;100624.09;;;12.14;41.96
18784;BME280;9520;50.954;6.968;2022-11-20T00:40:36;100625.03;;;12.11;41.46
18784;BME280;9520;50.954;6.968;2022-11-20T00:40:59;100623.19;;;12.15;41.88
18784;BME280;9520;50.954;6.968;2022-11-20T00:41:21;100622.28;;;12.16;41.53
18784;BME280;9520;50.954;6.968;2022-11-20T00:41:43;100626.63;;;12.19;41.57
18784;BME280;9520;50.954;6.968;2022-11-20T00:42:05;100621.34;;;12.19;41.73
18784;BME280;9520;50.954;6.968;2022-11-20T00:42:27;100618.75;;;12.17;41.86
18784;BME280;9520;50.954;6.968;2022-11-20T00:42:48;100621.31;;;12.20;42.09
18784;BME280;9520;50.954;6.968;2022-11-20T00:43:11;100602.94;;;12.14;41.87
18784;BME280;9520;50.954;6.968;2022-11-20T00:43:33;100621.28;;;12.22;41.72
18784;BME280;9520;50.954;6.968;2022-11-20T00:43:55;100621.25;;;12.23;41.68
18784;BME280;9520;50.954;6.968;2022-11-20T00:44:17;100609.81;;;12.23;41.33
18784;BME280;9520;50.954;6.968;2022-11-20T00:44:39;100613.38;;;12.20;41.58
18784;BME280;9520;50.954;6.968;2022-11-20T00:45:02;100612.50;;;12.20;41.51
18784;BME280;9520;50.954;6.968;2022-11-20T00:45:23;100615.09;;;12.23;41.79
18784;BME280;9520;50.954;6.968;2022-11-20T00:45:45;100613.31;;;12.23;41.68
18784;BME280;9520;50.954;6.968;2022-11-20T00:46:08;100609.84;;;12.21;41.54
18784;BME280;9520;50.954;6.968;2022-11-20T00:46:31;100609.72;;;12.26;41.28
18784;BME280;9520;50.954;6.968;2022-11-20T00:46:53;100615.88;;;12.28;41.26
18784;BME280;9520;50.954;6.968;2022-11-20T00:47:15;100614.94;;;12.29;41.48
18784;BME280;9520;50.954;6.968;2022-11-20T00:47:36;100610.53;;;12.29;41.24
18784;BME280;9520;50.954;6.968;2022-11-20T00:47:59;100607.84;;;12.31;41.42
18784;BME280;9520;50.954;6.968;2022-11-20T00:48:20;100608.75;;;12.30;41.23
18784;BME280;9520;50.954;6.968;2022-11-20T00:48:43;100606.09;;;12.30;40.93
18784;BME280;9520;50.954;6.968;2022-11-20T00:49:04;100609.59;;;12.32;41.22
18784;BME280;9520;50.954;6.968;2022-11-20T00:49:27;100614.84;;;12.33;41.51
18784;BME280;9520;50.954;6.968;2022-11-20T00:49:48;100622.81;;;12.32;41.44
18784;BME280;9520;50.954;6.968;2022-11-20T00:50:10;100603.41;;;12.33;41.15
18784;BME280;9520;50.954;6.968;2022-11-20T00:50:32;100606.94;;;12.32;41.27
18784;BME280;9520;50.954;6.968;2022-11-20T00:50:55;100600.03;;;12.26;41.45
18784;BME280;9520;50.954;6.968;2022-11-20T00:51:19;100606.88;;;12.35;41.60
18784;BME280;9520;50.954;6.968;2022-11-20T00:51:41;100598.91;;;12.36;41.62
18784;BME280;9520;50.954;6.968;2022-11-20T00:52:02;100605.34;;;12.25;41.36
18784;BME280;9520;50.954;6.968;2022-11-20T00:52:25;100607.13;;;12.24;41.74
18784;BME280;9520;50.954;6.968;2022-11-20T00:52:46;100608.03;;;12.23;41.56
18784;BME280;9520;50.954;6.968;2022-11-20T00:53:09;100603.53;;;12.27;41.55
18784;BME280;9520;50.954;6.968;2022-11-20T00:53:31;100611.41;;;12.30;41.56
18784;BME280;9520;50.954;6.968;2022-11-20T00:53:55;100595.59;;;12.27;41.47
18784;BME280;9520;50.954;6.968;2022-11-20T00:54:17;100604.31;;;12.32;41.38
18784;BME280;9520;50.954;6.968;2022-11-20T00:54:38;100599.34;;;12.18;41.10
18784;BME280;9520;50.954;6.968;2022-11-20T00:55:00;100602.78;;;12.22;41.39
18784;BME280;9520;50.954;6.968;2022-11-20T00:55:23;100601.91;;;12.21;41.27
18784;BME280;9520;50.954;6.968;2022-11-20T00:55:52;100604.53;;;12.23;41.38
18784;BME280;9520;50.954;6.968;2022-11-20T00:56:15;100610.72;;;12.22;41.42
18784;BME280;9520;50.954;6.968;2022-11-20T00:56:37;100599.25;;;12.21;41.45
18784;BME280;9520;50.954;6.968;2022-11-20T00:57:01;100609.75;;;12.24;41.59
18784;BME280;9520;50.954;6.968;2022-11-20T00:57:23;100610.59;;;12.26;41.58
18784;BME280;9520;50.954;6.968;2022-11-20T00:57:44;100611.47;;;12.27;41.57
18784;BME280;9520;50.954;6.968;2022-11-20T00:58:06;100607.00;;;12.29;41.49
18784;BME280;9520;50.954;6.968;2022-11-20T00:58:35;100596.50;;;12.26;41.38
18784;BME280;9520;50.954;6.968;2022-11-20T00:59:00;100610.72;;;12.22;41.19
18784;BME280;9520;50.954;6.968;2022-11-20T00:59:22;100606.25;;;12.24;40.99
18784;BME280;9520;50.954;6.968;2022-11-20T00:59:44;100610.69;;;12.23;41.27
18784;BME280;9520;50.954;6.968;2022-11-20T01:00:06;100608.88;;;12.24;41.41
18784;BME280;9520;50.954;6.968;2022-11-20T01:00:29;100602.69;;;12.25;41.85
18784;BME280;9520;50.954;6.968;2022-11-20T01:00:51;100608.09;;;12.20;41.64
18784;BME280;9520;50.954;6.968;2022-11-20T01:01:15;100608.06;;;12.22;41.85
18784;BME280;9520;50.954;6.968;2022-11-20T01:01:38;100610.63;;;12.25;41.70
18784;BME280;9520;50.954;6.968;2022-11-20T01:01:59;100613.25;;;12.26;41.50
18784;BME280;9520;50.954;6.968;2022-11-20T01:02:22;100615.13;;;12.21;41.17
18784;BME280;9520;50.954;6.968;2022-11-20T01:02:43;100620.75;;;12.06;41.49
18784;BME280;9520;50.954;6.968;2022-11-20T01:03:05;100613.72;;;12.05;41.22
18784;BME280;9520;50.954;6.968;2022-11-20T01:03:27;100615.47;;;12.06;40.98
18784;BME280;9520;50.954;6.968;2022-11-20T01:03:50;100617.19;;;12.08;41.02
18784;BME280;9520;50.954;6.968;2022-11-20T01:04:13;100626.84;;;12.09;41.37
18784;BME280;9520;50.954;6.968;2022-11-20T01:04:34;100621.56;;;12.09;41.08
18784;BME280;9520;50.954;6.968;2022-11-20T01:04:56;100623.41;;;12.04;41.41
18784;BME280;9520;50.954;6.968;2022-11-20T01:05:18;100624.38;;;12.02;41.32
18784;BME280;9520;50.954;6.968;2022-11-20T01:05:39;100629.59;;;12.05;40.98
18784;BME280;9520;50.954;6.968;2022-11-20T01:06:03;100623.47;;;12.03;40.77
18784;BME280;9520;50.954;6.968;2022-11-20T01:06:27;100623.38;;;12.07;40.91
18784;BME280;9520;50.954;6.968;2022-11-20T01:06:49;100614.56;;;12.07;40.86
18784;BME280;9520;50.954;6.968;2022-11-20T01:07:12;100620.66;;;12.10;40.60
18784;BME280;9520;50.954;6.968;2022-11-20T01:07:34;100616.22;;;12.13;40.36
18784;BME280;9520;50.954;6.968;2022-11-20T01:07:55;100615.34;;;12.12;40.61
18784;BME280;9520;50.954;6.968;2022-11-20T01:08:18;100614.47;;;12.11;40.80
18784;BME280;9520;50.954;6.968;2022-11-20T01:08:40;100619.69;;;12.15;41.09
18784;BME280;9520;50.954;6.968;2022-11-20T01:09:05;100622.28;;;12.16;41.25
18784;BME280;9520;50.954;6.968;2022-11-20T01:09:27;100623.09;;;12.20;41.43
18784;BME280;9520;50.954;6.968;2022-11-20T01:09:49;100620.50;;;12.18;41.61
18784;BME280;9520;50.954;6.968;2022-11-20T01:10:11;100618.69;;;12.19;41.47
18784;BME280;9520;50.954;6.968;2022-11-20T01:10:33;100616.91;;;12.21;41.33
18784;BME280;9520;50.954;6.968;2022-11-20T01:10:58;100612.59;;;12.17;41.48
18784;BME280;9520;50.954;6.968;2022-11-20T01:11:21;100615.97;;;12.23;41.47
18784;BME280;9520;50.954;6.968;2022-11-20T01:11:44;100615.97;;;12.23;41.37
18784;BME280;9520;50.954;6.968;2022-11-20T01:12:07;100617.88;;;12.17;41.17
18784;BME280;9520;50.954;6.968;2022-11-20T01:12:29;100620.41;;;12.21;41.06
18784;BME280;9520;50.954;6.968;2022-11-20T01:12:50;100614.34;;;12.18;40.86
18784;BME280;9520;50.954;6.968;2022-11-20T01:13:32;100617.91;;;12.15;41.09
18784;BME280;9520;50.954;6.968;2022-11-20T01:14:16;100613.38;;;12.20;41.43
18784;BME280;9520;50.954;6.968;2022-11-20T01:14:39;100619.53;;;12.21;41.42
18784;BME280;9520;50.954;6.968;2022-11-20T01:15:00;100622.09;;;12.24;41.53
18784;BME280;9520;50.954;6.968;2022-11-20T01:15:22;100623.06;;;12.21;41.14
18784;BME280;9520;50.954;6.968;2022-11-20T01:15:43;100616.91;;;12.21;40.99
18784;BME280;9520;50.954;6.968;2022-11-20T01:16:07;100623.03;;;12.23;41.00
18784;BME280;9520;50.954;6.968;2022-11-20T01:16:32;100627.47;;;12.21;41.00
18784;BME280;9520;50.954;6.968;2022-11-20T01:16:54;100626.63;;;12.19;41.30
18784;BME280;9520;50.954;6.968;2022-11-20T01:17:15;100624.03;;;12.17;41.35
18784;BME280;9520;50.954;6.968;2022-11-20T01:17:37;100627.59;;;12.15;40.91
18784;BME280;9520;50.954;6.968;2022-11-20T01:17:58;100612.03;;;12.02;40.70
18784;BME280;9520;50.954;6.968;2022-11-20T01:18:21;100624.28;;;12.05;40.99
18784;BME280;9520;50.954;6.968;2022-11-20T01:18:45;100608.50;;;12.02;40.90
18784;BME280;9520;50.954;6.968;2022-11-20T01:19:09;100616.25;;;12.09;41.24
18784;BME280;9520;50.954;6.968;2022-11-20T01:19:35;100618.84;;;12.13;41.38
18784;BME280;9520;50.954;6.968;2022-11-20T01:19:57;100610.94;;;12.11;41.37
18784;BME280;9520;50.954;6.968;2022-11-20T01:20:19;100611.81;;;12.11;41.53
18784;BME280;9520;50.954;6.968;2022-11-20T01:20:41;100617.00;;;12.16;41.45
18784;BME280;9520;50.954;6.968;2022-11-20T01:21:04;100596.94;;;12.07;41.28
18784;BME280;9520;50.954;6.968;2022-11-20T01:21:28;100615.16;;;12.20;41.48
18784;BME280;9520;50.954;6.968;2022-11-20T01:21:52;100614.25;;;12.21;41.58
18784;BME280;9520;50.954;6.968;2022-11-20T01:22:14;100608.84;;;12.25;41.19
18784;BME280;9520;50.954;6.968;2022-11-20T01:22:37;100608.88;;;12.24;41.17
18784;BME280;9520;50.954;6.968;2022-11-20T01:22:59;100608.88;;;12.24;41.09
18784;BME280;9520;50.954;6.968;2022-11-20T01:23:22;100604.47;;;12.24;41.23
18784;BME280;9520;50.954;6.968;2022-11-20T01:23:44;100607.13;;;12.24;41.29
18784;BME280;9520;50.954;6.968;2022-11-20T01:24:08;100595.81;;;12.18;41.11
18784;BME280;9520;50.954;6.968;2022-11-20T01:24:31;100608.97;;;12.21;40.88
18784;BME280;9520;50.954;6.968;2022-11-20T01:24:52;100604.47;;;12.24;40.69
18784;BME280;9520;50.954;6.968;2022-11-20T01:25:14;100602.69;;;12.25;40.94
18784;BME280;9520;50.954;6.968;2022-11-20T01:25:36;100603.53;;;12.27;41.10
18784;BME280;9520;50.954;6.968;2022-11-20T01:25:59;100598.25;;;12.27;40.87
18784;BME280;9520;50.954;6.968;2022-11-20T01:26:24;100608.75;;;12.30;41.00
18784;BME280;9520;50.954;6.968;2022-11-20T01:26:49;100605.22;;;12.29;40.75
18784;BME280;9520;50.954;6.968;2022-11-20T01:27:11;100607.09;;;12.26;40.70
18784;BME280;9520;50.954;6.968;2022-11-20T01:27:33;100599.19;;;12.24;40.96
18784;BME280;9520;50.954;6.968;2022-11-20T01:27:55;100602.69;;;12.25;40.89
18784;BME280;9520;50.954;6.968;2022-11-20T01:28:17;100597.38;;;12.26;40.93
18784;BME280;9520;50.954;6.968;2022-11-20T01:28:39;100605.28;;;12.28;41.13
18784;BME280;9520;50.954;6.968;2022-11-20T01:29:02;100604.34;;;12.29;41.04
18784;BME280;9520;50.954;6.968;2022-11-20T01:29:25;100611.38;;;12.31;41.01
18784;BME280;9520;50.954;6.968;2022-11-20T01:29:47;100608.75;;;12.30;40.97
18784;BME280;9520;50.954;6.968;2022-11-20T01:30:09;100604.31;;;12.32;41.36
18784;BME280;9520;50.954;6.968;2022-11-20T01:30:31;100603.44;;;12.31;40.93
18784;BME280;9520;50.954;6.968;2022-11-20T01:30:52;100607.84;;;12.31;40.93
18784;BME280;9520;50.954;6.968;2022-11-20T01:31:15;100601.69;;;12.30;41.07
18784;BME280;9520;50.954;6.968;2022-11-20T01:31:38;100605.28;;;12.28;41.05
18784;BME280;9520;50.954;6.968;2022-11-20T01:32:00;100601.81;;;12.26;41.18
18784;BME280;9520;50.954;6.968;2022-11-20T01:32:22;100611.47;;;12.27;41.10
18784;BME280;9520;50.954;6.968;2022-11-20T01:32:43;100604.41;;;12.27;40.89
18784;BME280;9520;50.954;6.968;2022-11-20T01:33:05;100604.41;;;12.27;40.66
18784;BME280;9520;50.954;6.968;2022-11-20T01:33:28;100603.47;;;12.30;40.92
18784;BME280;9520;50.954;6.968;2022-11-20T01:33:51;100603.47;;;12.30;40.80
18784;BME280;9520;50.954;6.968;2022-11-20T01:34:15;100605.22;;;12.31;40.99
18784;BME280;9520;50.954;6.968;2022-11-20T01:34:37;100606.16;;;12.28;41.15
18784;BME280;9520;50.954;6.968;2022-11-20T01:34:59;100598.31;;;12.24;40.66
18784;BME280;9520;50.954;6.968;2022-11-20T01:35:21;100604.34;;;12.29;40.43
18784;BME280;9520;50.954;6.968;2022-11-20T01:35:42;100600.91;;;12.27;40.26
18784;BME280;9520;50.954;6.968;2022-11-20T01:36:05;100602.75;;;12.23;41.00
18784;BME280;9520;50.954;6.968;2022-11-20T01:36:30;100607.06;;;12.27;41.09
18784;BME280;9520;50.954;6.968;2022-11-20T01:36:53;100602.69;;;12.25;41.33
18784;BME280;9520;50.954;6.968;2022-11-20T01:37:15;100607.13;;;12.24;41.15
18784;BME280;9520;50.954;6.968;2022-11-20T01:37:36;100594.72;;;12.26;41.27
18784;BME280;9520;50.954;6.968;2022-11-20T01:37:58;100602.56;;;12.31;41.26
18784;BME280;9520;50.954;6.968;2022-11-20T01:38:22;100599.03;;;12.30;41.15
18784;BME280;9520;50.954;6.968;2022-11-20T01:38:44;100604.34;;;12.30;41.38
18784;BME280;9520;50.954;6.968;2022-11-20T01:39:07;100604.34;;;12.30;41.08
18784;BME280;9520;50.954;6.968;2022-11-20T01:39:31;100604.31;;;12.32;40.98
18784;BME280;9520;50.954;6.968;2022-11-20T01:39:53;100603.44;;;12.31;40.94
18784;BME280;9520;50.954;6.968;2022-11-20T01:40:15;100603.41;;;12.33;41.05
18784;BME280;9520;50.954;6.968;2022-11-20T01:40:37;100603.34;;;12.34;41.43
18784;BME280;9520;50.954;6.968;2022-11-20T01:40:58;100604.28;;;12.33;41.15
18784;BME280;9520;50.954;6.968;2022-11-20T01:41:21;100605.13;;;12.34;41.21
18784;BME280;9520;50.954;6.968;2022-11-20T01:42:01;100596.34;;;12.33;41.14
18784;BME280;9520;50.954;6.968;2022-11-20T01:42:45;100601.63;;;12.33;41.09
18784;BME280;9520;50.954;6.968;2022-11-20T01:43:25;100600.78;;;12.31;41.41
18784;BME280;9520;50.954;6.968;2022-11-20T01:43:49;100594.63;;;12.31;41.07
18784;BME280;9520;50.954;6.968;2022-11-20T01:44:12;100599.84;;;12.34;41.00
18784;BME280;9520;50.954;6.968;2022-11-20T01:44:54;100600.75;;;12.33;40.98
18784;BME280;9520;50.954;6.968;2022-11-20T01:45:52;100602.56;;;12.31;40.98
18784;BME280;9520;50.954;6.968;2022-11-20T01:46:18;100602.47;;;12.34;40.95
18784;BME280;9520;50.954;6.968;2022-11-20T01:46:47;100597.28;;;12.31;40.89
18784;BME280;9520;50.954;6.968;2022-11-20T01:47:14;100596.44;;;12.29;40.63
18784;BME280;9520;50.954;6.968;2022-11-20T01:47:40;100598.25;;;12.27;41.00
18784;BME280;9520;50.954;6.968;2022-11-20T01:48:05;100605.22;;;12.29;41.12
18784;BME280;9520;50.954;6.968;2022-11-20T01:48:32;100598.25;;;12.27;41.86
18784;BME280;9520;50.954;6.968;2022-11-20T01:48:58;100605.34;;;12.25;41.59
18784;BME280;9520;50.954;6.968;2022-11-20T01:49:24;100599.19;;;12.24;41.76
18784;BME280;9520;50.954;6.968;2022-11-20T01:49:52;100604.47;;;12.24;41.49
18784;BME280;9520;50.954;6.968;2022-11-20T01:50:22;100600.03;;;12.26;41.26
18784;BME280;9520;50.954;6.968;2022-11-20T01:50:45;100600.88;;;12.28;41.49
18784;BME280;9520;50.954;6.968;2022-11-20T01:51:14;100598.25;;;12.27;40.92
18784;BME280;9520;50.954;6.968;2022-11-20T01:51:41;100601.72;;;12.29;40.90
18784;BME280;9520;50.954;6.968;2022-11-20T01:52:05;100595.59;;;12.27;41.15
18784;BME280;9520;50.954;6.968;2022-11-20T01:52:32;100602.59;;;12.29;41.41
18784;BME280;9520;50.954;6.968;2022-11-20T01:53:00;100597.28;;;12.31;41.33
18784;BME280;9520;50.954;6.968;2022-11-20T01:53:27;100599.03;;;12.30;41.56
18784;BME280;9520;50.954;6.968;2022-11-20T01:53:52;100596.34;;;12.33;41.35
18784;BME280;9520;50.954;6.968;2022-11-20T01:54:19;100602.53;;;12.32;41.51
18784;BME280;9520;50.954;6.968;2022-11-20T01:54:47;100601.66;;;12.32;41.35
18784;BME280;9520;50.954;6.968;2022-11-20T01:55:13;100601.66;;;12.32;41.15
18784;BME280;9520;50.954;6.968;2022-11-20T01:55:38;100594.53;;;12.34;41.27
18784;BME280;9520;50.954;6.968;2022-11-20T01:56:04;100589.25;;;12.34;41.31
18784;BME280;9520;50.954;6.968;2022-11-20T01:56:30;100591.88;;;12.35;41.22
18784;BME280;9520;50.954;6.968;2022-11-20T01:56:55;100584.91;;;12.33;41.09
18784;BME280;9520;50.954;6.968;2022-11-20T01:57:19;100587.53;;;12.33;41.29
18784;BME280;9520;50.954;6.968;2022-11-20T01:57:43;100585.81;;;12.30;41.56
18784;BME280;9520;50.954;6.968;2022-11-20T01:58:07;100585.00;;;12.28;41.52
18784;BME280;9520;50.954;6.968;2022-11-20T01:58:31;100586.66;;;12.32;41.67
18784;BME280;9520;50.954;6.968;2022-11-20T01:58:56;100583.25;;;12.27;41.79
18784;BME280;9520;50.954;6.968;2022-11-20T01:59:20;100590.13;;;12.34;41.45
18784;BME280;9520;50.954;6.968;2022-11-20T01:59:51;100582.28;;;12.31;41.74
18784;BME280;9520;50.954;6.968;2022-11-20T02:00:17;100586.81;;;12.26;41.53
18784;BME280;9520;50.954;6.968;2022-11-20T02:00:40;100590.28;;;12.28;41.71
18784;BME280;9520;50.954;6.968;2022-11-20T02:01:03;100585.94;;;12.26;41.46
18784;BME280;9520;50.954;6.968;2022-11-20T02:01:26;100578.00;;;12.26;41.69
18784;BME280;9520;50.954;6.968;2022-11-20T02:01:47;100579.75;;;12.27;41.68
18784;BME280;9520;50.954;6.968;2022-11-20T02:02:09;100578.03;;;12.24;41.71
18784;BME280;9520;50.954;6.968;2022-11-20T02:02:32;100578.97;;;12.23;41.86
18784;BME280;9520;50.954;6.968;2022-11-20T02:02:57;100574.69;;;12.18;41.90
18784;BME280;9520;50.954;6.968;2022-11-20T02:03:19;100578.91;;;12.25;41.58
18784;BME280;9520;50.954;6.968;2022-11-20T02:03:41;100580.72;;;12.23;41.68